createdAt,value
2023-05-10T07:17:45.767Z,13.24
2023-05-10T07:20:13.872Z,13.52
2023-05-10T07:22:41.064Z,13.98
2023-05-10T07:25:08.926Z,13.99
2023-05-10T07:27:36.068Z,13.76
2023-05-10T07:30:03.450Z,13.92
2023-05-10T07:32:30.814Z,13.79
2023-05-10T07:34:59.370Z,13.77
2023-05-10T07:37:26.432Z,13.81
2023-05-10T07:39:53.626Z,13.71
2023-05-10T07:42:20.740Z,13.76
2023-05-10T07:44:47.896Z,13.70
2023-05-10T07:47:14.984Z,13.63
2023-05-10T07:49:42.108Z,13.40
2023-05-10T07:52:10.617Z,13.32
2023-05-10T07:54:37.755Z,13.37
2023-05-10T07:57:05.019Z,13.44
2023-05-10T07:59:32.218Z,13.54
2023-05-10T08:01:59.602Z,13.95
2023-05-10T08:04:26.927Z,14.15
2023-05-10T08:06:54.073Z,14.12
2023-05-10T08:09:22.563Z,14.24
2023-05-10T08:11:49.751Z,14.06
2023-05-10T08:14:16.975Z,14.17
2023-05-10T08:16:44.151Z,13.95
2023-05-10T08:19:11.321Z,14.12
2023-05-10T08:21:38.502Z,14.25
2023-05-10T08:24:06.320Z,14.18
2023-05-10T08:26:35.478Z,14.16
2023-05-10T08:29:02.578Z,14.32
2023-05-10T08:31:29.940Z,14.37
2023-05-10T08:33:57.116Z,14.51
2023-05-10T08:36:24.221Z,14.32
2023-05-10T08:38:52.107Z,14.34
2023-05-10T08:41:20.688Z,14.80
2023-05-10T08:43:49.404Z,14.53
2023-05-10T08:46:17.270Z,14.32
2023-05-10T08:48:44.675Z,14.20
2023-05-10T08:51:12.657Z,14.60
2023-05-10T08:53:39.887Z,14.68
2023-05-10T08:56:07.942Z,14.65
2023-05-10T08:58:35.180Z,14.86
2023-05-10T09:01:03.761Z,14.61
2023-05-10T09:03:31.144Z,14.62
2023-05-10T09:05:58.294Z,14.70
2023-05-10T09:08:26.007Z,15.19
2023-05-10T09:10:53.195Z,14.86
2023-05-10T09:13:20.338Z,14.76
2023-05-10T09:15:54.873Z,14.93
2023-05-10T09:18:24.318Z,14.85
2023-05-10T09:20:52.738Z,14.52
2023-05-10T09:23:19.945Z,15.23
2023-05-10T09:25:47.120Z,15.07
2023-05-10T09:28:14.262Z,15.58
2023-05-10T09:30:41.511Z,15.55
2023-05-10T09:33:08.673Z,15.55
2023-05-10T09:35:37.337Z,15.43
2023-05-10T09:38:05.124Z,15.70
2023-05-10T09:40:32.388Z,15.75
2023-05-10T09:43:00.176Z,15.67
2023-05-10T09:45:28.344Z,15.67
2023-05-10T14:38:06.605Z,16.76
2023-05-10T14:40:35.203Z,16.17
2023-05-10T14:43:02.378Z,16.80
2023-05-10T14:45:29.669Z,16.42
2023-05-10T14:47:56.849Z,16.61
2023-05-10T14:50:35.732Z,16.28
2023-05-10T14:53:03.883Z,15.98
2023-05-10T14:55:35.641Z,17.19
2023-05-10T14:58:03.328Z,17.34
2023-05-10T15:00:31.130Z,18.83
2023-05-10T15:02:59.451Z,19.47
2023-05-10T15:05:26.950Z,20.07
2023-05-10T15:07:54.654Z,19.05
2023-05-10T15:10:21.709Z,18.45
2023-05-10T15:12:50.805Z,17.63
2023-05-10T15:15:18.082Z,18.26
2023-05-10T15:17:45.385Z,17.38
2023-05-10T15:20:12.998Z,18.15
2023-05-10T15:22:40.084Z,18.03
2023-05-10T15:25:07.859Z,17.12
2023-05-10T15:27:37.097Z,21.08
2023-05-10T15:30:07.323Z,18.45
2023-05-10T15:32:35.640Z,17.72
2023-05-10T15:35:02.685Z,16.62
2023-05-10T15:37:29.863Z,16.23
2023-05-10T15:39:57.582Z,15.95
2023-05-10T15:42:24.652Z,16.16
2023-05-10T15:44:52.004Z,16.28
2023-05-10T15:47:20.671Z,15.99
2023-05-10T15:49:47.828Z,15.82
2023-05-10T15:52:15.168Z,15.93
2023-05-10T15:54:42.432Z,15.80
2023-05-10T15:57:09.653Z,15.85
2023-05-10T15:59:36.854Z,15.63
2023-05-10T16:02:04.098Z,15.74
2023-05-10T16:04:32.773Z,15.85
2023-05-10T16:07:00.012Z,15.74
2023-05-10T16:09:27.197Z,15.21
2023-05-10T16:11:54.396Z,14.67
2023-05-10T16:14:21.603Z,14.85
2023-05-10T16:16:48.848Z,14.77
2023-05-10T16:19:16.253Z,15.10
2023-05-10T16:21:46.980Z,14.76
2023-05-10T16:24:14.233Z,14.82
2023-05-10T16:26:41.358Z,15.14
2023-05-10T16:29:08.604Z,15.51
2023-05-10T16:31:35.888Z,15.55
2023-05-10T16:34:03.157Z,15.53
2023-05-10T16:36:30.315Z,15.74
2023-05-10T16:38:58.859Z,16.14
2023-05-10T16:41:25.993Z,16.15
2023-05-10T16:43:53.203Z,15.99
2023-05-10T16:46:20.426Z,16.09
2023-05-10T16:48:47.666Z,16.27
2023-05-10T16:51:14.970Z,16.56
2023-05-10T16:53:42.365Z,16.54
2023-05-10T16:56:10.963Z,16.79
2023-05-10T16:58:39.672Z,17.69
2023-05-10T17:01:06.942Z,22.75
2023-05-10T17:03:34.264Z,19.28
2023-05-10T17:06:01.605Z,18.84
2023-05-10T17:08:28.821Z,25.53
2023-05-10T17:10:56.079Z,28.48
2023-05-10T17:13:24.849Z,27.38
2023-05-10T17:15:52.178Z,28.67
2023-05-10T17:18:19.456Z,28.01
2023-05-10T17:20:46.707Z,30.13
2023-05-10T17:23:13.892Z,28.04
